createdAt,value
2017-11-04T00:00:35.163Z,0
2017-11-04T00:01:45.247Z,0
2017-11-04T00:02:55.526Z,0
2017-11-04T00:04:05.983Z,0
2017-11-04T00:05:16.402Z,0
2017-11-04T00:06:26.808Z,0
2017-11-04T00:07:36.875Z,0
2017-11-04T00:08:46.937Z,0
2017-11-04T00:09:57.014Z,0
2017-11-04T00:11:07.416Z,0
2017-11-04T00:12:17.814Z,0
2017-11-04T00:13:27.548Z,0
2017-11-04T00:14:37.956Z,0
2017-11-04T00:15:48.356Z,0
2017-11-04T00:16:58.761Z,0
2017-11-04T00:18:08.830Z,0
2017-11-04T00:19:19.270Z,0
2017-11-04T00:20:29.701Z,0
2017-11-04T00:21:40.168Z,0
2017-11-04T00:22:50.803Z,0
2017-11-04T00:24:01.706Z,0
2017-11-04T00:25:12.442Z,0
2017-11-04T00:26:22.835Z,0
2017-11-04T00:27:32.575Z,0
2017-11-04T00:28:42.647Z,0
2017-11-04T00:29:52.714Z,0
2017-11-04T00:31:03.119Z,0
2017-11-04T00:32:13.200Z,0
2017-11-04T00:33:23.602Z,0
2017-11-04T00:34:34.042Z,0
2017-11-04T00:35:44.104Z,0
2017-11-04T00:36:54.491Z,0
2017-11-04T00:38:04.907Z,0
2017-11-04T00:39:14.993Z,0
2017-11-04T00:40:25.075Z,0
2017-11-04T00:41:35.487Z,0
2017-11-04T00:42:45.548Z,0
2017-11-04T00:43:55.964Z,0
2017-11-04T00:45:06.361Z,0
2017-11-04T00:46:16.753Z,0
2017-11-04T00:47:27.158Z,0
2017-11-04T00:48:37.562Z,0
2017-11-04T00:49:47.969Z,0
2017-11-04T00:50:58.033Z,0
2017-11-04T00:52:08.883Z,0
2017-11-04T00:53:19.035Z,0
2017-11-04T00:54:29.562Z,0
2017-11-04T00:55:40.592Z,0
2017-11-04T00:56:51.009Z,0
2017-11-04T00:58:01.431Z,0
2017-11-04T00:59:11.820Z,0
2017-11-04T01:00:21.960Z,0
2017-11-04T01:01:31.932Z,0
2017-11-04T01:02:42.234Z,0
2017-11-04T01:03:52.864Z,0
2017-11-04T01:05:03.304Z,0
2017-11-04T01:06:13.362Z,0
2017-11-04T01:07:23.995Z,0
2017-11-04T01:08:34.110Z,0
2017-11-04T01:09:44.506Z,0
2017-11-04T01:10:54.580Z,0
2017-11-04T01:12:04.972Z,0
2017-11-04T01:13:15.800Z,0
2017-11-04T01:14:27.087Z,0
2017-11-04T01:15:39.162Z,0
2017-11-04T01:16:49.253Z,0
2017-11-04T01:17:59.793Z,0
2017-11-04T01:19:11.527Z,0
2017-11-04T01:20:21.990Z,0
2017-11-04T01:21:32.413Z,0
2017-11-04T01:22:42.821Z,0
2017-11-04T01:23:52.890Z,0
2017-11-04T01:25:03.299Z,0
2017-11-04T01:26:13.925Z,0
2017-11-04T01:27:24.554Z,0
2017-11-04T01:28:34.978Z,0
2017-11-04T01:29:46.771Z,0
2017-11-04T01:30:57.653Z,0
2017-11-04T01:32:07.805Z,0
2017-11-04T01:33:18.208Z,0
2017-11-04T01:34:27.947Z,0
2017-11-04T01:35:38.421Z,0
2017-11-04T01:36:48.494Z,0
2017-11-04T01:37:58.621Z,0
2017-11-04T01:39:09.013Z,0
2017-11-04T01:40:19.414Z,0
2017-11-04T01:41:29.477Z,0
2017-11-04T01:42:39.900Z,0
2017-11-04T01:43:50.303Z,0
2017-11-04T01:45:00.367Z,0
2017-11-04T01:46:10.764Z,0
2017-11-04T01:47:21.175Z,0
2017-11-04T01:48:31.579Z,0
2017-11-04T01:49:43.744Z,0
2017-11-04T01:50:53.817Z,0
2017-11-04T01:52:04.208Z,0
2017-11-04T01:53:15.218Z,0
2017-11-04T01:54:25.276Z,0
2017-11-04T01:55:35.558Z,0
2017-11-04T01:56:45.965Z,0
2017-11-04T01:57:56.366Z,0
2017-11-04T01:59:06.858Z,0
2017-11-04T02:00:16.930Z,0
2017-11-04T02:01:27.319Z,0
2017-11-04T02:02:37.381Z,0
2017-11-04T02:03:47.781Z,0
2017-11-04T02:04:58.182Z,0
2017-11-04T02:06:08.577Z,0
2017-11-04T02:07:18.653Z,0
2017-11-04T02:08:29.044Z,0
2017-11-04T02:09:39.125Z,0
2017-11-04T02:10:49.537Z,0
2017-11-04T02:11:59.598Z,0
2017-11-04T02:13:09.995Z,0
2017-11-04T02:14:20.067Z,0
2017-11-04T02:15:30.139Z,0
2017-11-04T02:16:40.207Z,0
2017-11-04T02:17:50.264Z,0
2017-11-04T02:19:00.376Z,0
2017-11-04T02:20:10.770Z,0
2017-11-04T02:21:21.182Z,0
2017-11-04T02:22:31.590Z,0
2017-11-04T02:23:41.992Z,0
2017-11-04T02:24:52.145Z,0
2017-11-04T02:26:02.560Z,0
2017-11-04T02:27:12.960Z,0
2017-11-04T02:28:23.357Z,0
2017-11-04T02:29:34.131Z,0
2017-11-04T02:30:44.526Z,0
2017-11-04T02:31:54.594Z,0
2017-11-04T02:33:04.658Z,0
2017-11-04T02:34:16.001Z,0
2017-11-04T02:35:26.403Z,0
2017-11-04T02:36:36.808Z,0
2017-11-04T02:37:47.193Z,0
2017-11-04T02:38:57.590Z,0
2017-11-04T02:40:08.249Z,0
2017-11-04T02:41:18.665Z,0
2017-11-04T02:42:28.755Z,0
2017-11-04T02:43:38.505Z,0
2017-11-04T02:44:48.599Z,0
2017-11-04T02:45:59.004Z,0
2017-11-04T02:47:09.414Z,0
2017-11-04T02:48:19.799Z,0
2017-11-04T02:49:30.191Z,0
2017-11-04T02:50:40.608Z,0
2017-11-04T02:51:50.999Z,0
2017-11-04T02:53:00.736Z,0
2017-11-04T02:54:11.357Z,0
2017-11-04T02:55:21.107Z,0
2017-11-04T02:56:31.509Z,0
2017-11-04T02:57:41.580Z,0
2017-11-04T02:58:51.651Z,0
2017-11-04T03:00:02.521Z,0
2017-11-04T03:01:13.569Z,0
2017-11-04T03:33:09.685Z,0
2017-11-04T03:34:19.416Z,0
2017-11-04T03:35:29.507Z,0
2017-11-04T03:36:39.894Z,0
2017-11-04T03:37:50.898Z,0
2017-11-04T03:39:01.483Z,0
2017-11-04T03:40:11.897Z,0
2017-11-04T03:41:22.760Z,0
2017-11-04T03:42:33.412Z,0
2017-11-04T03:43:44.888Z,0
2017-11-04T03:44:57.303Z,0
2017-11-04T03:46:08.199Z,0
2017-11-04T03:47:19.345Z,0
2017-11-04T03:48:30.190Z,0
2017-11-04T03:49:42.203Z,0
2017-11-04T03:50:52.649Z,0
2017-11-04T03:52:03.397Z,0
2017-11-04T03:53:13.472Z,0
2017-11-04T03:54:23.857Z,0
2017-11-04T03:55:34.263Z,0
2017-11-04T03:56:59.231Z,0
2017-11-04T03:58:10.682Z,0
2017-11-04T03:59:21.076Z,0
2017-11-04T04:00:31.495Z,0
2017-11-04T04:01:41.572Z,0
2017-11-04T04:02:51.695Z,0
2017-11-04T04:04:02.096Z,0
2017-11-04T04:05:12.715Z,0
2017-11-04T04:06:22.975Z,0
2017-11-04T04:07:32.961Z,0
2017-11-04T04:08:43.909Z,0
2017-11-04T04:09:53.979Z,0
2017-11-04T04:11:04.047Z,0
2017-11-04T04:12:14.118Z,0
2017-11-04T04:13:24.500Z,0
2017-11-04T04:14:34.614Z,0
2017-11-04T04:15:45.218Z,0
2017-11-04T04:16:55.816Z,0
2017-11-04T04:18:06.433Z,0
2017-11-04T04:19:17.548Z,0
2017-11-04T04:20:28.312Z,0
2017-11-04T04:21:39.227Z,0
2017-11-04T04:22:49.891Z,0
2017-11-04T04:24:00.461Z,0
2017-11-04T04:25:11.390Z,0
2017-11-04T04:26:22.166Z,0
2017-11-04T04:27:32.585Z,0
2017-11-04T04:28:42.634Z,0
2017-11-04T04:29:53.050Z,0
2017-11-04T04:31:03.459Z,0
2017-11-04T04:32:13.902Z,0
2017-11-04T04:33:24.297Z,0
2017-11-04T04:34:34.358Z,0
2017-11-04T04:36:10.816Z,0
2017-11-04T04:39:46.644Z,0
2017-11-04T04:40:58.296Z,0
2017-11-04T04:42:12.153Z,0
2017-11-04T04:43:29.262Z,0
2017-11-04T04:45:07.527Z,0
2017-11-04T04:46:24.375Z,0
2017-11-04T04:47:44.322Z,0
2017-11-04T04:49:04.241Z,0
2017-11-04T04:50:30.916Z,0
2017-11-04T04:51:40.985Z,0
2017-11-04T04:53:04.007Z,0
2017-11-04T04:54:14.417Z,0
2017-11-04T04:55:24.880Z,0
2017-11-04T04:56:34.942Z,0
2017-11-04T04:57:45.348Z,0
2017-11-04T04:58:55.758Z,0
2017-11-04T05:00:06.138Z,0
2017-11-04T05:01:16.525Z,0
2017-11-04T05:02:26.908Z,0
2017-11-04T05:03:36.987Z,0
2017-11-04T05:04:47.066Z,0
2017-11-04T05:05:57.450Z,0
2017-11-04T05:07:07.199Z,0
2017-11-04T05:08:17.626Z,0
2017-11-04T05:09:28.004Z,0
2017-11-04T05:10:38.426Z,0
2017-11-04T05:11:48.812Z,4
2017-11-04T05:12:58.930Z,0
2017-11-04T05:14:09.355Z,4
2017-11-04T05:15:19.744Z,4
2017-11-04T05:16:29.799Z,0
2017-11-04T05:17:40.185Z,4
2017-11-04T05:18:50.237Z,4
2017-11-04T05:20:00.641Z,4
2017-11-04T05:21:12.356Z,8
2017-11-04T05:22:22.439Z,8
2017-11-04T05:23:32.845Z,8
2017-11-04T05:24:43.233Z,8
2017-11-04T05:25:53.640Z,12
2017-11-04T05:27:03.715Z,16
2017-11-04T05:28:13.792Z,20
2017-11-04T05:29:24.055Z,24
2017-11-04T05:30:34.422Z,28
2017-11-04T05:31:44.915Z,32
2017-11-04T05:32:55.620Z,36
2017-11-04T05:34:05.996Z,48
2017-11-04T05:35:17.190Z,52
2017-11-04T05:36:42.395Z,64
2017-11-04T05:37:54.285Z,76
2017-11-04T05:39:06.197Z,88
2017-11-04T05:40:15.984Z,96
2017-11-04T05:41:28.077Z,108
2017-11-04T05:42:39.180Z,124
2017-11-04T05:43:49.478Z,140
2017-11-04T05:45:01.295Z,152
2017-11-04T05:46:12.767Z,172
2017-11-04T05:47:23.358Z,188
2017-11-04T05:48:34.077Z,208
2017-11-04T05:49:44.460Z,224
2017-11-04T05:50:55.332Z,244
2017-11-04T05:52:05.785Z,268
2017-11-04T05:53:16.504Z,288
2017-11-04T05:54:27.474Z,308
2017-11-04T05:55:38.338Z,332
2017-11-04T05:56:49.591Z,360
2017-11-04T05:58:00.487Z,380
2017-11-04T05:59:11.000Z,408
2017-11-04T06:00:21.875Z,436
2017-11-04T06:01:32.595Z,464
2017-11-04T06:02:43.555Z,496
2017-11-04T06:03:53.979Z,524
2017-11-04T06:05:04.393Z,552
2017-11-04T06:06:29.859Z,592
2017-11-04T06:07:40.471Z,628
2017-11-04T06:08:51.112Z,660
2017-11-04T06:10:01.714Z,692
2017-11-04T06:11:12.102Z,724
2017-11-04T06:12:22.239Z,756
2017-11-04T06:13:32.643Z,792
2017-11-04T06:14:43.035Z,824
2017-11-04T06:15:53.441Z,860
2017-11-04T06:17:03.497Z,888
2017-11-04T06:18:13.940Z,920
2017-11-04T06:19:23.674Z,952
2017-11-04T06:20:34.083Z,992
2017-11-04T06:21:44.154Z,1028
2017-11-04T06:22:54.572Z,1060
2017-11-04T06:24:05.021Z,1092
2017-11-04T06:25:15.090Z,1132
2017-11-04T06:26:25.486Z,1164
2017-11-04T06:27:35.895Z,1196
2017-11-04T06:28:45.643Z,1228
2017-11-04T06:29:56.097Z,1268
2017-11-04T06:31:06.488Z,1300
2017-11-04T06:32:16.559Z,1336
2017-11-04T06:33:26.959Z,1376
2017-11-04T06:34:37.351Z,1420
2017-11-04T06:35:47.445Z,1464
2017-11-04T06:36:57.517Z,1508
2017-11-04T06:38:07.934Z,1548
2017-11-04T06:39:18.330Z,1596
2017-11-04T06:40:28.737Z,1640
2017-11-04T06:41:39.129Z,1680
2017-11-04T06:42:49.197Z,1720
2017-11-04T06:43:59.608Z,1748
2017-11-04T06:45:10.022Z,1788
2017-11-04T06:46:20.420Z,1828
2017-11-04T06:47:30.230Z,1852
2017-11-04T06:48:40.615Z,1892
2017-11-04T06:49:50.684Z,1932
2017-11-04T06:51:01.102Z,1964
2017-11-04T06:52:11.159Z,2012
2017-11-04T06:53:20.915Z,2032
2017-11-04T06:54:31.324Z,2064
2017-11-04T06:55:41.719Z,2104
2017-11-04T06:56:52.136Z,2144
2017-11-04T06:58:02.198Z,2156
2017-11-04T06:59:12.613Z,2212
2017-11-04T07:00:23.016Z,2248
2017-11-04T07:01:33.105Z,2280
2017-11-04T07:02:43.495Z,2312
2017-11-04T07:03:53.559Z,2356
2017-11-04T07:05:04.013Z,2400
2017-11-04T07:06:13.765Z,2416
2017-11-04T07:07:24.162Z,2460
2017-11-04T07:08:34.523Z,2496
2017-11-04T07:09:44.896Z,2508
2017-11-04T07:10:55.023Z,2556
2017-11-04T07:12:05.417Z,2588
2017-11-04T07:13:15.759Z,2608
2017-11-04T07:14:26.112Z,2636
2017-11-04T07:15:36.206Z,2676
2017-11-04T07:16:46.272Z,2716
2017-11-04T07:17:56.672Z,2744
2017-11-04T07:19:07.098Z,2784
2017-11-04T07:20:17.160Z,2792
2017-11-04T07:21:27.233Z,2816
2017-11-04T07:22:37.375Z,2864
2017-11-04T07:23:47.798Z,2916
2017-11-04T07:24:57.876Z,2956
2017-11-04T07:26:07.952Z,3000
2017-11-04T07:27:18.024Z,3020
2017-11-04T07:28:28.125Z,3036
2017-11-04T07:29:38.640Z,3060
2017-11-04T07:30:48.753Z,3112
2017-11-04T07:31:59.163Z,3136
2017-11-04T07:33:08.917Z,3172
2017-11-04T07:34:19.332Z,3228
2017-11-04T07:35:29.745Z,3236
2017-11-04T07:36:39.814Z,3300
2017-11-04T07:37:50.240Z,3348
2017-11-04T07:39:00.633Z,3372
2017-11-04T07:40:11.041Z,3388
2017-11-04T07:41:21.433Z,3428
2017-11-04T07:42:31.836Z,3464
2017-11-04T07:43:41.897Z,3480
2017-11-04T07:44:51.983Z,3528
2017-11-04T07:46:02.464Z,3524
2017-11-04T07:47:12.884Z,3548
2017-11-04T07:48:23.277Z,3576
2017-11-04T07:49:33.679Z,3628
2017-11-04T07:50:44.082Z,3644
2017-11-04T07:51:54.213Z,3664
2017-11-04T07:53:04.291Z,3704
2017-11-04T07:54:14.701Z,3736
2017-11-04T07:55:24.775Z,3780
2017-11-04T07:56:35.176Z,3840
2017-11-04T07:57:45.568Z,3872
2017-11-04T07:58:55.964Z,3904
2017-11-04T08:00:06.042Z,3932
2017-11-04T08:01:15.793Z,3980
2017-11-04T08:02:26.221Z,4004
2017-11-04T08:03:36.666Z,4044
2017-11-04T08:04:46.740Z,4060
2017-11-04T08:05:57.155Z,4072
2017-11-04T08:07:07.239Z,4108
2017-11-04T08:08:17.650Z,4136
2017-11-04T08:09:27.768Z,4164
2017-11-04T08:10:37.838Z,4192
2017-11-04T08:11:47.904Z,4236
2017-11-04T08:12:58.301Z,4256
2017-11-04T08:14:08.381Z,4304
2017-11-04T08:15:18.822Z,4332
2017-11-04T08:16:29.231Z,4368
2017-11-04T08:17:39.634Z,4368
2017-11-04T08:18:50.028Z,4404
2017-11-04T08:20:00.092Z,4416
2017-11-04T08:21:10.153Z,4484
2017-11-04T08:22:20.563Z,4532
2017-11-04T08:23:30.621Z,4536
2017-11-04T08:24:40.684Z,4556
2017-11-04T08:25:50.751Z,4632
2017-11-04T08:27:01.208Z,4636
2017-11-04T08:28:11.270Z,4636
2017-11-04T08:29:21.030Z,4680
2017-11-04T08:30:31.441Z,4664
2017-11-04T08:31:41.193Z,4692
2017-11-04T08:32:51.638Z,4748
2017-11-04T08:34:02.047Z,4824
2017-11-04T08:35:12.457Z,4828
2017-11-04T08:36:22.224Z,4852
2017-11-04T08:37:32.632Z,4884
2017-11-04T08:38:42.758Z,4888
2017-11-04T08:39:52.827Z,4952
2017-11-04T08:41:02.577Z,4968
2017-11-04T08:42:12.964Z,5012
2017-11-04T08:43:23.384Z,4968
2017-11-04T08:44:33.869Z,5040
2017-11-04T08:45:43.628Z,5072
2017-11-04T08:46:54.033Z,5044
2017-11-04T08:48:04.424Z,5120
2017-11-04T08:49:14.847Z,5088
2017-11-04T08:50:25.325Z,5164
2017-11-04T08:51:35.744Z,5164
2017-11-04T08:52:46.025Z,5176
2017-11-04T08:53:56.103Z,5212
2017-11-04T08:55:06.180Z,5188
2017-11-04T08:56:16.646Z,5244
2017-11-04T08:57:27.034Z,5284
2017-11-04T08:58:37.113Z,5292
2017-11-04T08:59:47.531Z,5344
2017-11-04T09:00:57.938Z,5364
2017-11-04T09:02:08.422Z,5380
2017-11-04T09:03:19.837Z,5412
2017-11-04T09:04:30.234Z,5424
2017-11-04T09:05:40.656Z,5408
2017-11-04T09:06:51.051Z,5456
2017-11-04T09:08:02.152Z,5504
2017-11-04T09:09:12.648Z,5544
2017-11-04T09:10:23.066Z,5516
2017-11-04T09:11:33.469Z,5504
2017-11-04T09:12:43.902Z,5584
2017-11-04T09:13:54.355Z,5580
2017-11-04T09:15:04.414Z,5632
2017-11-04T09:16:14.826Z,5580
2017-11-04T09:17:25.265Z,5644
2017-11-04T09:18:35.679Z,5668
2017-11-04T09:19:45.751Z,5688
2017-11-04T09:20:55.813Z,5668
2017-11-04T09:22:06.240Z,5724
2017-11-04T09:23:15.981Z,5732
2017-11-04T09:24:26.421Z,5776
2017-11-04T09:25:36.894Z,5804
2017-11-04T09:26:46.982Z,5792
2017-11-04T09:27:57.060Z,5900
2017-11-04T09:29:07.454Z,5920
2017-11-04T09:30:17.182Z,5952
2017-11-04T09:31:27.689Z,5956
2017-11-04T09:32:38.092Z,5964
2017-11-04T09:33:48.516Z,6012
2017-11-04T09:34:58.951Z,6024
2017-11-04T09:36:09.405Z,6068
2017-11-04T09:37:19.490Z,6092
2017-11-04T09:38:29.882Z,6092
2017-11-04T09:39:39.994Z,6088
2017-11-04T09:40:50.436Z,6140
2017-11-04T09:42:00.498Z,6144
2017-11-04T09:43:10.628Z,6152
2017-11-04T09:44:21.030Z,6208
2017-11-04T09:45:31.442Z,6156
2017-11-04T09:46:41.829Z,6164
2017-11-04T09:47:52.233Z,6132
2017-11-04T09:49:02.305Z,6160
2017-11-04T09:50:12.726Z,6208
2017-11-04T09:51:22.795Z,6204
2017-11-04T09:52:33.230Z,6232
2017-11-04T09:53:43.642Z,6304
2017-11-04T09:54:54.104Z,6304
2017-11-04T09:56:04.525Z,6276
2017-11-04T09:57:14.929Z,6336
2017-11-04T09:58:25.001Z,6328
2017-11-04T09:59:35.393Z,6340
2017-11-04T10:00:45.507Z,6396
2017-11-04T10:01:55.912Z,6384
2017-11-04T10:03:06.305Z,6436
2017-11-04T10:04:16.728Z,6440
2017-11-04T10:05:26.483Z,6448
2017-11-04T10:06:36.551Z,6504
2017-11-04T10:07:46.949Z,6452
2017-11-04T10:08:57.341Z,6472
2017-11-04T10:10:07.744Z,6436
2017-11-04T10:11:18.175Z,6480
2017-11-04T10:12:27.948Z,6500
2017-11-04T10:13:38.019Z,6464
2017-11-04T10:14:48.425Z,6512
2017-11-04T10:15:58.476Z,6496
2017-11-04T10:17:08.880Z,6556
2017-11-04T10:18:18.986Z,6476
2017-11-04T10:19:29.397Z,6560
2017-11-04T10:20:39.839Z,6520
2017-11-04T10:21:50.247Z,6520
2017-11-04T10:23:00.340Z,6556
2017-11-04T10:24:10.403Z,6548
2017-11-04T10:25:20.466Z,6388
2017-11-04T10:26:30.881Z,6388
2017-11-04T10:27:40.954Z,6416
2017-11-04T10:28:51.355Z,6420
2017-11-04T10:30:01.791Z,6364
2017-11-04T10:31:12.222Z,6360
2017-11-04T10:32:22.659Z,6492
2017-11-04T10:33:34.136Z,6572
2017-11-04T10:34:44.205Z,6728
2017-11-04T10:35:54.668Z,6796
2017-11-04T10:37:04.778Z,6708
2017-11-04T10:38:14.866Z,6676
2017-11-04T10:39:25.270Z,6732
2017-11-04T10:40:35.678Z,6864
2017-11-04T10:41:46.099Z,6872
2017-11-04T10:42:56.191Z,6864
2017-11-04T10:44:05.955Z,6940
2017-11-04T10:45:16.026Z,6956
2017-11-04T10:46:26.429Z,6844
2017-11-04T10:47:36.168Z,6696
2017-11-04T10:48:46.598Z,6704
2017-11-04T10:49:57.018Z,6772
2017-11-04T10:51:07.423Z,6540
2017-11-04T10:52:17.820Z,6664
2017-11-04T10:53:27.900Z,6688
2017-11-04T10:54:38.334Z,6776
2017-11-04T10:55:48.406Z,6856
2017-11-04T10:56:58.818Z,6952
2017-11-04T10:58:08.884Z,6904
2017-11-04T10:59:19.340Z,6860
2017-11-04T11:00:29.414Z,6624
2017-11-04T11:01:39.831Z,6548
2017-11-04T11:02:49.568Z,6140
2017-11-04T11:03:59.976Z,6148
2017-11-04T11:05:10.445Z,6176
2017-11-04T11:06:20.531Z,6076
2017-11-04T11:07:30.938Z,6120
2017-11-04T11:08:41.375Z,6096
2017-11-04T11:09:51.812Z,6332
2017-11-04T11:11:02.225Z,6584
2017-11-04T11:12:12.637Z,6700
2017-11-04T11:13:23.039Z,6656
2017-11-04T11:14:32.764Z,6692
2017-11-04T11:15:42.837Z,6648
2017-11-04T11:16:53.458Z,6568
2017-11-04T11:18:03.874Z,6424
2017-11-04T11:19:13.840Z,6480
2017-11-04T11:20:24.312Z,6284
2017-11-04T11:21:34.720Z,6292
2017-11-04T11:22:45.106Z,6552
2017-11-04T11:23:55.536Z,6608
2017-11-04T11:25:05.944Z,6580
2017-11-04T11:26:16.403Z,6612
2017-11-04T11:27:26.817Z,6668
2017-11-04T11:28:37.458Z,6612
2017-11-04T11:29:47.858Z,6612
2017-11-04T11:30:58.285Z,6628
2017-11-04T11:32:08.704Z,6616
2017-11-04T11:33:19.091Z,6812
2017-11-04T11:34:29.526Z,6884
2017-11-04T11:35:39.942Z,6900
2017-11-04T11:36:49.684Z,6744
2017-11-04T11:37:59.429Z,6404
2017-11-04T11:39:09.843Z,6256
2017-11-04T11:40:20.323Z,6736
2017-11-04T11:41:30.766Z,7340
2017-11-04T11:42:41.176Z,7400
2017-11-04T11:43:51.585Z,7352
2017-11-04T11:45:01.326Z,7308
2017-11-04T11:46:11.731Z,6664
2017-11-04T11:47:21.811Z,6344
2017-11-04T11:48:33.160Z,5956
2017-11-04T11:49:43.241Z,6056
2017-11-04T11:50:53.331Z,6520
2017-11-04T11:52:03.753Z,6636
2017-11-04T11:53:13.500Z,6740
2017-11-04T11:54:23.919Z,7264
2017-11-04T11:55:34.324Z,7780
2017-11-04T11:56:44.728Z,7956
2017-11-04T11:57:55.194Z,7984
2017-11-04T11:59:05.616Z,7904
2017-11-04T12:00:16.041Z,7860
2017-11-04T12:01:26.469Z,7068
2017-11-04T12:02:36.541Z,6860
2017-11-04T12:03:46.293Z,6812
2017-11-04T12:04:56.706Z,6812
2017-11-04T12:06:06.441Z,7372
2017-11-04T12:07:16.874Z,7480
2017-11-04T12:08:26.957Z,7528
2017-11-04T12:09:37.391Z,8048
2017-11-04T12:10:47.469Z,7852
2017-11-04T12:11:57.878Z,7384
2017-11-04T12:13:08.300Z,6804
2017-11-04T12:14:18.711Z,7404
2017-11-04T12:15:29.128Z,7756
2017-11-04T12:16:39.585Z,7292
2017-11-04T12:17:50.014Z,7040
2017-11-04T12:18:59.809Z,6136
2017-11-04T12:20:09.903Z,5968
2017-11-04T12:21:20.361Z,5496
2017-11-04T12:22:30.113Z,5080
2017-11-04T12:23:40.194Z,5884
2017-11-04T12:24:50.606Z,6904
2017-11-04T12:26:01.014Z,6944
2017-11-04T12:27:11.440Z,6852
2017-11-04T12:28:21.511Z,7288
2017-11-04T12:29:31.592Z,7596
2017-11-04T12:30:42.010Z,7660
2017-11-04T12:31:52.425Z,7624
2017-11-04T12:33:02.918Z,7160
2017-11-04T12:34:13.320Z,6844
2017-11-04T12:35:23.085Z,7176
2017-11-04T12:36:33.164Z,6948
2017-11-04T12:37:43.573Z,6576
2017-11-04T12:38:54.034Z,6224
2017-11-04T12:40:04.464Z,6108
2017-11-04T12:41:14.880Z,6388
2017-11-04T12:42:24.981Z,6584
2017-11-04T12:43:35.383Z,6524
2017-11-04T12:44:45.461Z,6404
2017-11-04T12:45:55.568Z,6124
2017-11-04T12:47:05.990Z,6044
2017-11-04T12:48:16.087Z,5944
2017-11-04T12:49:26.163Z,5392
2017-11-04T12:50:35.970Z,5116
2017-11-04T12:51:46.376Z,5196
2017-11-04T12:52:56.447Z,5372
2017-11-04T12:54:06.860Z,5632
2017-11-04T12:55:17.261Z,5724
2017-11-04T12:56:27.400Z,5752
2017-11-04T12:57:37.823Z,5540
2017-11-04T12:58:48.249Z,5296
2017-11-04T12:59:58.698Z,5284
2017-11-04T13:01:08.443Z,5072
2017-11-04T13:02:18.889Z,4988
2017-11-04T13:03:28.982Z,4932
2017-11-04T13:04:39.391Z,4560
2017-11-04T13:05:49.154Z,4504
2017-11-04T13:06:59.248Z,4424
2017-11-04T13:08:09.649Z,4244
2017-11-04T13:09:20.074Z,4328
2017-11-04T13:10:30.478Z,4384
2017-11-04T13:11:40.882Z,4244
2017-11-04T13:12:50.294Z,4140
2017-11-04T13:14:00.368Z,4188
2017-11-04T13:15:10.794Z,4332
2017-11-04T13:16:21.207Z,4112
2017-11-04T13:17:31.274Z,4244
2017-11-04T13:18:41.662Z,4308
2017-11-04T13:19:51.762Z,4172
2017-11-04T13:21:01.828Z,4552
2017-11-04T13:22:12.243Z,4748
2017-11-04T13:23:21.991Z,4724
2017-11-04T13:24:32.409Z,4780
2017-11-04T13:25:42.896Z,4652
2017-11-04T13:26:53.312Z,4364
2017-11-04T13:28:03.716Z,4152
2017-11-04T13:29:14.146Z,4220
2017-11-04T13:30:24.552Z,4228
2017-11-04T13:31:35.010Z,3860
2017-11-04T13:32:45.116Z,3692
2017-11-04T13:33:55.209Z,3664
2017-11-04T13:35:05.630Z,4204
2017-11-04T13:36:15.729Z,4068
2017-11-04T13:37:26.128Z,3768
2017-11-04T13:38:36.223Z,3544
2017-11-04T13:39:46.635Z,3788
2017-11-04T13:40:57.619Z,4052
2017-11-04T13:42:07.695Z,3876
2017-11-04T13:43:17.772Z,3904
2017-11-04T13:44:28.210Z,3848
2017-11-04T13:45:38.630Z,3800
2017-11-04T13:46:49.028Z,3676
2017-11-04T13:47:59.429Z,3588
2017-11-04T13:49:09.836Z,3420
2017-11-04T13:50:19.897Z,3292
2017-11-04T13:51:29.980Z,3312
2017-11-04T13:52:40.386Z,3292
2017-11-04T13:53:50.779Z,3144
2017-11-04T13:55:01.211Z,2912
2017-11-04T13:56:11.629Z,2576
2017-11-04T13:57:22.050Z,2428
2017-11-04T13:58:32.119Z,2384
2017-11-04T13:59:42.203Z,2312
2017-11-04T14:00:52.631Z,2232
2017-11-04T14:02:02.709Z,2200
2017-11-04T14:03:13.169Z,2152
2017-11-04T14:04:23.580Z,2076
2017-11-04T14:05:33.982Z,1980
2017-11-04T14:06:44.393Z,1932
2017-11-04T14:07:54.817Z,1892
2017-11-04T14:09:04.881Z,1836
2017-11-04T14:10:15.288Z,1796
2017-11-04T14:11:25.704Z,1748
2017-11-04T14:12:36.129Z,1720
2017-11-04T14:13:45.888Z,1712
2017-11-04T14:14:55.991Z,1728
2017-11-04T14:16:06.070Z,1716
2017-11-04T14:17:16.489Z,1712
2017-11-04T14:18:26.578Z,1684
2017-11-04T14:19:37.007Z,1648
2017-11-04T14:20:47.134Z,1596
2017-11-04T14:21:57.562Z,1556
2017-11-04T14:23:07.341Z,1516
2017-11-04T14:24:17.781Z,1472
2017-11-04T14:25:27.857Z,1424
2017-11-04T14:26:38.277Z,1372
2017-11-04T14:27:48.698Z,1328
2017-11-04T14:28:58.471Z,1304
2017-11-04T14:30:08.864Z,1272
2017-11-04T14:31:18.974Z,1240
2017-11-04T14:32:29.437Z,1212
2017-11-04T14:33:39.529Z,1188
2017-11-04T14:34:49.931Z,1164
2017-11-04T14:36:00.349Z,1140
2017-11-04T14:37:10.786Z,1116
2017-11-04T14:38:21.205Z,1092
2017-11-04T14:39:31.265Z,1064
2017-11-04T14:40:41.682Z,1040
2017-11-04T14:41:52.090Z,1016
2017-11-04T14:43:02.168Z,996
2017-11-04T14:44:12.293Z,972
2017-11-04T14:45:22.708Z,948
2017-11-04T14:46:33.142Z,920
2017-11-04T14:47:43.541Z,892
2017-11-04T14:48:53.952Z,868
2017-11-04T14:50:04.977Z,840
2017-11-04T14:51:15.376Z,808
2017-11-04T14:52:25.447Z,780
2017-11-04T14:53:35.888Z,752
2017-11-04T14:54:46.296Z,724
2017-11-04T14:55:56.388Z,692
2017-11-04T14:57:06.779Z,664
2017-11-04T14:58:16.851Z,636
2017-11-04T14:59:26.924Z,612
2017-11-04T15:00:37.512Z,588
2017-11-04T15:01:47.652Z,556
2017-11-04T15:02:58.642Z,528
2017-11-04T15:04:09.062Z,500
2017-11-04T15:05:19.171Z,472
2017-11-04T15:06:29.607Z,448
2017-11-04T15:07:39.690Z,416
2017-11-04T15:08:50.082Z,392
2017-11-04T15:10:00.516Z,368
2017-11-04T15:11:10.603Z,344
2017-11-04T15:12:21.056Z,320
2017-11-04T15:13:31.546Z,296
2017-11-04T15:14:41.994Z,272
2017-11-04T15:15:52.439Z,252
2017-11-04T15:17:02.529Z,232
2017-11-04T15:18:12.611Z,216
2017-11-04T15:19:23.082Z,200
2017-11-04T15:20:33.168Z,180
2017-11-04T15:21:43.587Z,164
2017-11-04T15:22:53.661Z,144
2017-11-04T15:24:04.074Z,132
2017-11-04T15:25:14.190Z,116
2017-11-04T15:26:24.616Z,104
2017-11-04T15:27:35.048Z,92
2017-11-04T15:28:45.476Z,84
2017-11-04T15:29:55.585Z,72
2017-11-04T15:31:06.022Z,68
2017-11-04T15:32:16.472Z,60
2017-11-04T15:33:26.566Z,52
2017-11-04T15:34:36.992Z,48
2017-11-04T15:35:47.427Z,40
2017-11-04T15:36:57.896Z,36
2017-11-04T15:38:08.306Z,32
2017-11-04T15:39:18.768Z,24
2017-11-04T15:40:29.221Z,24
2017-11-04T15:41:39.970Z,16
2017-11-04T15:42:50.477Z,16
2017-11-04T15:44:00.914Z,16
2017-11-04T15:45:11.362Z,12
2017-11-04T15:46:21.791Z,12
2017-11-04T15:47:32.222Z,8
2017-11-04T15:48:42.293Z,4
2017-11-04T15:49:52.735Z,4
2017-11-04T15:51:03.139Z,4
2017-11-04T15:52:13.243Z,4
2017-11-04T15:53:23.678Z,4
2017-11-04T15:54:33.772Z,0
2017-11-04T15:55:44.196Z,4
2017-11-04T15:56:54.605Z,4
2017-11-04T15:58:05.024Z,0
2017-11-04T15:59:15.449Z,0
2017-11-04T16:00:25.922Z,0
2017-11-04T16:01:35.985Z,0
2017-11-04T16:02:48.209Z,0
2017-11-04T16:03:58.627Z,0
2017-11-04T16:05:09.033Z,0
2017-11-04T16:06:19.175Z,0
2017-11-04T16:07:29.243Z,0
2017-11-04T16:08:39.329Z,0
2017-11-04T16:09:49.424Z,0
2017-11-04T16:10:59.507Z,0
2017-11-04T16:12:09.927Z,0
2017-11-04T16:13:20.363Z,0
2017-11-04T16:14:30.437Z,0
2017-11-04T16:15:40.543Z,0
2017-11-04T16:16:50.951Z,0
2017-11-04T16:18:01.100Z,0
2017-11-04T16:19:11.518Z,0
2017-11-04T16:20:21.951Z,0
2017-11-04T16:21:32.355Z,0
2017-11-04T16:22:42.447Z,0
2017-11-04T16:23:52.850Z,0
2017-11-04T16:25:02.928Z,0
2017-11-04T16:26:13.367Z,0
2017-11-04T16:27:23.416Z,0
2017-11-04T16:28:33.834Z,0
2017-11-04T16:29:44.243Z,0
2017-11-04T16:30:54.669Z,0
2017-11-04T16:32:04.755Z,0
2017-11-04T16:33:15.161Z,0
2017-11-04T16:34:26.128Z,0
2017-11-04T16:35:36.789Z,0
2017-11-04T16:36:47.252Z,0
2017-11-04T16:37:57.397Z,0
2017-11-04T16:39:07.835Z,0
2017-11-04T16:40:18.252Z,0
2017-11-04T16:41:28.666Z,0
2017-11-04T16:42:38.755Z,0
2017-11-04T16:43:49.172Z,0
2017-11-04T16:44:59.267Z,0
2017-11-04T16:46:09.684Z,0
2017-11-04T16:47:20.170Z,0
2017-11-04T16:48:30.633Z,0
2017-11-04T16:49:41.664Z,0
2017-11-04T16:50:51.753Z,0
2017-11-04T16:52:02.188Z,0
2017-11-04T16:53:12.621Z,0